Aérodrome :
LOGIN :

S'inscrire | Disclaimer

   EN    FR    IT 

 










Légende :    VFR   VFR Marginal   IFR   IFR Intensif   IFR Très Intensif
Visi : 
Plafond : 
>= 8 km
>= 3000ft
5 à 8 km
1000 à 3000 ft
1500m à 5 km
500 à 1000 ft
800 à 1500m
200 à 500 ft
< 800m
< 200 ft
Symboles :   Orages  Brouillard  Fortes neiges  Fortes précipitations  Vent > 20 kt
SIGMETs :   Divers  Orages  Givrage  Turbulence  Onde Orograph.  Cendres Volcan.






- Altitude de l'aérodrome : 18 ft
- Code IATA : AJA


LFKJ - Ajaccio

DERNIER METAR :
  • 130330Z AUTO 03005KT 9999 BKN028 BKN038 BKN048 09/07 Q1017 NOSIG

METARs EXPIRÉS :
  • 130300Z AUTO 05004KT 9999 SCT031 OVC043 09/07 Q1017 NOSIG
  • 130230Z AUTO 04005KT 9999 -RA BKN031/// OVC041/// ///TCU 10/06 Q1017 BECMG BKN030 BKN050
  • 130200Z AUTO 04003KT 9999 -RA BKN031 BKN045 OVC060 10/06 Q1017 NOSIG
  • 130130Z AUTO 04005KT 9999 OVC032 10/05 Q1017 NOSIG
  • 130100Z AUTO 03005KT 9999 OVC034 10/05 Q1017 BECMG 09010KT
  • 130030Z AUTO 05005KT 9999 OVC033 10/05 Q1017 NOSIG

TAF TAF LFKJ
Valide du 13 à 03h jusqu'au 14 à 03h UTC


130200Z 1303/1403 04005KT 9999 BKN030 BKN050
BECMG 1308/1310 23010KT NSC
ATIS : +33 4 95 23 59 85



MET'MAP, la Météo Aéronautique d'un coup d'oeil ! - Copyright ORBIFLY Décembre 2007 - Disclaimer

ORBIFLY MET'MAP TEAM :

Programmation & Développement : Alexandra Zaïnal
Sur une idée originale de : Baudouin d'Aumeries
Assistance à la programmation : Marc-Olivier Méhu
Soutien technique & logistique : Manuel Goepfert

Contact : metmap@orbifly.com




SOURCES & CREDITS :

   NOAA